Aviation Digital Data Service (ADDS)

Output produced by METARs form (0418 UTC 26 May 2018)
found at http://aviationweather.gov/adds/metars/
 
Forecast for: ZSPD (SHANGHAI/PUDONG , CN)
Text: TAF ZSPD 260320Z 2606/2706 03004MPS 5000 BR BKN010 TX26/2606Z TN20/2621Z
Forecast period: 0600 to 1800 UTC 26 May 2018
Forecast type: FROM: standard forecast or significant change
Winds: from the NNE (30 degrees) at 9 MPH (8 knots; 4.2 m/s)
Visibility: 3 miles (5 km)
Ceiling: 1000 feet AGL
Clouds: broken clouds at 1000 feet AGL
Weather: BR  (mist)
Text: BECMG 2618/2619 10004MPS
Forecast period: 1800 UTC 26 May 2018 to 0600 UTC 27 May 2018
Forecast type: BECOMING: Conditions expected to become as follows by 1900 UTC 26 May 2018
Winds: from the E (100 degrees) at 9 MPH (8 knots; 4.2 m/s)
Visibility: 3 miles (5 km)
Ceiling: 1000 feet AGL
Clouds: broken clouds at 1000 feet AGL
Weather: BR  (mist)